Time;durP1;ratioP1;P1;durP2;ratioP2;P2;SDS_P1;SDS_P2;PMS_P1;PMS_P2;Temp;Humidity;BMP_temperature;BMP_pressure;BME280_temperature;BME280_humidity;BME280_pressure;Samples;Min_cycle;Max_cycle;Signal;HPM_P1;HPM_P2
2021/12/31 00:01:49;;;;;;;45.63;27.45;;;;;;;;;;5028092;28;20045;-79
2021/12/31 00:04:15;;;;;;;43.53;27.70;;;;;;;;;;5028350;28;20010;-79
2021/12/31 00:06:44;;;;;;;38.13;25.63;;;;;;;;;;5029353;28;20047;-79
2021/12/31 00:09:10;;;;;;;40.30;27.27;;;;;;;;;;5030658;28;20090;-79
2021/12/31 00:11:38;;;;;;;38.45;25.48;;;;;;;;;;5027986;28;20399;-79
2021/12/31 00:14:04;;;;;;;39.08;26.08;;;;;;;;;;5027806;28;20009;-79
2021/12/31 00:16:30;;;;;;;36.15;25.63;;;;;;;;;;5030413;28;20030;-80
2021/12/31 00:19:00;;;;;;;40.60;26.40;;;;;;;;;;5031969;28;20041;-79
2021/12/31 00:21:32;;;;;;;34.92;22.60;;;;;;;;;;5027617;28;20022;-79
2021/12/31 00:23:58;;;;;;;31.00;20.60;;;;;;;;;;5027228;28;20014;-78
2021/12/31 00:26:25;;;;;;;29.33;19.42;;;;;;;;;;5027814;28;20097;-79
2021/12/31 00:28:51;;;;;;;29.33;20.25;;;;;;;;;;5031055;28;20163;-79
2021/12/31 00:31:21;;;;;;;28.90;21.02;;;;;;;;;;5047104;28;20104;-79
2021/12/31 00:33:49;;;;;;;29.65;20.38;;;;;;;;;;5042172;28;20116;-79
2021/12/31 00:36:16;;;;;;;31.45;23.25;;;;;;;;;;5040516;28;20066;-79
2021/12/31 00:38:43;;;;;;;35.67;25.33;;;;;;;;;;5047566;28;20025;-79
2021/12/31 00:41:09;;;;;;;32.78;24.40;;;;;;;;;;5038787;28;20033;-79
2021/12/31 00:43:35;;;;;;;30.90;23.10;;;;;;;;;;5032326;28;20017;-79
2021/12/31 00:46:02;;;;;;;31.70;22.67;;;;;;;;;;5032134;28;20057;-79
2021/12/31 00:48:29;;;;;;;31.42;23.55;;;;;;;;;;5045868;28;20025;-79
2021/12/31 00:51:07;;;;;;;35.08;23.75;;;;;;;;;;5039958;28;20026;-79
2021/12/31 00:53:42;;;;;;;30.70;22.25;;;;;;;;;;5028438;28;20650;-79
2021/12/31 00:56:08;;;;;;;32.90;23.23;;;;;;;;;;5038782;28;20104;-79
2021/12/31 00:58:34;;;;;;;34.63;22.67;;;;;;;;;;5041950;28;20033;-79
2021/12/31 01:01:01;;;;;;;37.22;24.05;;;;;;;;;;5040157;28;20047;-79
2021/12/31 01:03:27;;;;;;;40.17;27.60;;;;;;;;;;5042911;28;20044;-79
2021/12/31 01:05:53;;;;;;;39.63;28.33;;;;;;;;;;5028479;28;20037;-79
2021/12/31 01:08:24;;;;;;;43.83;28.73;;;;;;;;;;5028372;28;20033;-79
2021/12/31 01:10:50;;;;;;;46.22;32.75;;;;;;;;;;5026830;28;20017;-79
2021/12/31 01:13:26;;;;;;;47.72;31.27;;;;;;;;;;5026159;28;20026;-80
2021/12/31 01:15:58;;;;;;;47.45;31.55;;;;;;;;;;5032718;28;20496;-79
2021/12/31 01:19:44;;;;;;;49.50;30.60;;;;;;;;;;5027409;28;20030;-79
2021/12/31 01:21:10;;;;;;;43.63;28.42;;;;;;;;;;5027309;28;20411;-79
2021/12/31 01:23:36;;;;;;;45.22;29.48;;;;;;;;;;5029731;28;20042;-79
2021/12/31 01:26:03;;;;;;;43.00;28.63;;;;;;;;;;5045184;28;20029;-79
2021/12/31 01:28:33;;;;;;;41.85;27.77;;;;;;;;;;5021169;28;20029;-79
2021/12/31 01:30:59;;;;;;;39.38;27.02;;;;;;;;;;5027518;28;20030;-79
2021/12/31 01:33:25;;;;;;;51.30;30.30;;;;;;;;;;5043039;28;20025;-79
2021/12/31 01:35:54;;;;;;;47.92;28.92;;;;;;;;;;5028063;28;20026;-79
2021/12/31 01:38:35;;;;;;;40.15;26.70;;;;;;;;;;5045617;28;20030;-79
2021/12/31 01:41:01;;;;;;;35.42;23.65;;;;;;;;;;5046272;28;20026;-79
2021/12/31 01:43:28;;;;;;;37.25;24.10;;;;;;;;;;5034997;28;20052;-79
2021/12/31 01:46:11;;;;;;;32.47;21.95;;;;;;;;;;5049058;28;20033;-79
2021/12/31 01:48:59;;;;;;;30.65;22.13;;;;;;;;;;5030229;28;20025;-79
2021/12/31 01:51:25;;;;;;;32.70;21.60;;;;;;;;;;5029126;28;20034;-79
2021/12/31 01:53:52;;;;;;;36.33;23.17;;;;;;;;;;5030445;28;20038;-77
2021/12/31 01:56:20;;;;;;;32.90;22.60;;;;;;;;;;5032300;28;20554;-79
2021/12/31 01:59:06;;;;;;;34.90;23.15;;;;;;;;;;5029578;28;20449;-79
2021/12/31 02:01:36;;;;;;;33.00;23.25;;;;;;;;;;5028598;28;20026;-79
2021/12/31 02:04:02;;;;;;;37.25;25.15;;;;;;;;;;5033553;28;20021;-79
2021/12/31 02:06:33;;;;;;;35.58;24.27;;;;;;;;;;5017393;28;20056;-78
2021/12/31 02:09:01;;;;;;;29.90;21.05;;;;;;;;;;5036234;28;20036;-78
2021/12/31 02:11:32;;;;;;;28.95;19.35;;;;;;;;;;5027127;28;20030;-78
2021/12/31 02:13:58;;;;;;;33.45;23.92;;;;;;;;;;5032461;28;20212;-78
2021/12/31 02:16:24;;;;;;;30.88;21.27;;;;;;;;;;5043401;28;20034;-77
2021/12/31 02:18:51;;;;;;;24.60;15.30;;;;;;;;;;5046473;28;20014;-78
2021/12/31 02:21:18;;;;;;;26.05;14.13;;;;;;;;;;5026739;28;20030;-79
2021/12/31 02:23:46;;;;;;;18.73;11.35;;;;;;;;;;5023240;28;20018;-79
2021/12/31 02:26:13;;;;;;;16.25;9.27;;;;;;;;;;5026708;28;20049;-78
2021/12/31 02:28:41;;;;;;;11.13;7.22;;;;;;;;;;5027355;28;20026;-79
2021/12/31 02:31:07;;;;;;;9.68;6.25;;;;;;;;;;5029077;28;20022;-78
2021/12/31 02:33:34;;;;;;;7.78;5.25;;;;;;;;;;5027587;28;20712;-78
2021/12/31 02:36:04;;;;;;;5.63;3.47;;;;;;;;;;5025647;28;20029;-78
2021/12/31 02:38:31;;;;;;;5.40;2.90;;;;;;;;;;5027771;28;20125;-78
2021/12/31 02:40:57;;;;;;;5.20;2.53;;;;;;;;;;5028893;28;20022;-78
2021/12/31 02:43:29;;;;;;;3.53;1.92;;;;;;;;;;5025430;28;20064;-78
2021/12/31 02:45:58;;;;;;;3.22;1.52;;;;;;;;;;5022940;28;20026;-78
2021/12/31 02:48:25;;;;;;;4.97;2.28;;;;;;;;;;5022959;28;20459;-77
2021/12/31 02:50:53;;;;;;;4.03;1.90;;;;;;;;;;5023683;28;20034;-79
2021/12/31 02:53:23;;;;;;;3.13;1.50;;;;;;;;;;5022990;28;20042;-77
2021/12/31 02:55:51;;;;;;;3.42;1.60;;;;;;;;;;5022534;28;20034;-77
2021/12/31 02:58:19;;;;;;;4.28;1.77;;;;;;;;;;5039110;28;20029;-78
2021/12/31 03:00:45;;;;;;;2.72;1.20;;;;;;;;;;5025200;28;20034;-78
2021/12/31 03:03:13;;;;;;;3.38;1.60;;;;;;;;;;5024097;28;20025;-78
2021/12/31 03:05:41;;;;;;;3.50;1.52;;;;;;;;;;5023365;28;20041;-78
2021/12/31 03:08:10;;;;;;;3.78;1.73;;;;;;;;;;5025417;28;20022;-78
2021/12/31 03:10:36;;;;;;;3.40;1.60;;;;;;;;;;5025445;28;20524;-78
2021/12/31 03:13:02;;;;;;;3.75;1.73;;;;;;;;;;5021539;28;20040;-78
2021/12/31 03:15:29;;;;;;;3.45;1.50;;;;;;;;;;5023291;28;20069;-77
2021/12/31 03:17:59;;;;;;;3.47;1.50;;;;;;;;;;5022847;28;20037;-78
2021/12/31 03:20:36;;;;;;;4.03;1.50;;;;;;;;;;5003931;28;20392;-78
2021/12/31 03:23:04;;;;;;;2.70;1.42;;;;;;;;;;5021348;28;20021;-78
2021/12/31 03:25:30;;;;;;;2.88;1.30;;;;;;;;;;5023537;28;20030;-78
2021/12/31 03:27:56;;;;;;;4.25;1.27;;;;;;;;;;5023161;28;20072;-78
2021/12/31 03:30:22;;;;;;;3.38;1.35;;;;;;;;;;5024819;28;20060;-77
2021/12/31 03:32:48;;;;;;;3.55;1.58;;;;;;;;;;5023686;28;20034;-78
2021/12/31 03:35:14;;;;;;;3.30;1.20;;;;;;;;;;5024069;28;20433;-78
2021/12/31 03:37:40;;;;;;;5.72;1.55;;;;;;;;;;5023664;28;20060;-78
2021/12/31 03:40:07;;;;;;;2.92;1.13;;;;;;;;;;5025678;28;20434;-78
2021/12/31 03:42:33;;;;;;;3.25;1.30;;;;;;;;;;5022788;28;20041;-78
2021/12/31 03:45:00;;;;;;;2.50;1.13;;;;;;;;;;5021084;28;20345;-77
2021/12/31 03:47:27;;;;;;;4.40;1.45;;;;;;;;;;5020085;28;20026;-78
2021/12/31 03:49:53;;;;;;;3.00;1.30;;;;;;;;;;5023227;28;20034;-77
2021/12/31 03:52:19;;;;;;;3.05;1.25;;;;;;;;;;5019848;28;20026;-78
2021/12/31 03:54:45;;;;;;;3.28;1.40;;;;;;;;;;5012402;28;20057;-79
2021/12/31 03:57:11;;;;;;;3.10;1.30;;;;;;;;;;5020016;28;20044;-77
2021/12/31 03:59:38;;;;;;;3.30;1.20;;;;;;;;;;5019956;28;20056;-77
2021/12/31 04:02:04;;;;;;;3.25;1.27;;;;;;;;;;5021661;28;20059;-77
2021/12/31 04:04:30;;;;;;;3.92;1.10;;;;;;;;;;5021010;28;20117;-79
2021/12/31 04:06:59;;;;;;;3.15;1.40;;;;;;;;;;5017398;28;20093;-77
2021/12/31 04:09:25;;;;;;;2.75;1.20;;;;;;;;;;5015864;28;20094;-78
2021/12/31 04:11:52;;;;;;;2.20;1.20;;;;;;;;;;5021932;28;20026;-77
2021/12/31 04:14:18;;;;;;;2.85;1.20;;;;;;;;;;5020001;28;20033;-78
2021/12/31 04:16:44;;;;;;;2.85;1.10;;;;;;;;;;5019617;28;20037;-77
2021/12/31 04:19:10;;;;;;;2.78;1.20;;;;;;;;;;5031494;28;20057;-77
2021/12/31 04:21:37;;;;;;;2.92;1.30;;;;;;;;;;5032394;28;20068;-78
2021/12/31 04:24:13;;;;;;;2.70;1.10;;;;;;;;;;5025475;28;20046;-78
2021/12/31 04:26:43;;;;;;;2.50;1.13;;;;;;;;;;5010683;28;20014;-78
2021/12/31 04:29:09;;;;;;;3.03;1.20;;;;;;;;;;5022669;28;20029;-78
2021/12/31 04:31:36;;;;;;;3.35;1.48;;;;;;;;;;5016359;28;20034;-78
2021/12/31 04:34:05;;;;;;;3.20;1.48;;;;;;;;;;5020252;28;20037;-77
2021/12/31 04:36:45;;;;;;;3.25;1.30;;;;;;;;;;5010830;28;20033;-78
2021/12/31 04:39:11;;;;;;;3.53;1.30;;;;;;;;;;5024256;28;20030;-78
2021/12/31 04:41:38;;;;;;;2.47;1.30;;;;;;;;;;5024161;28;20034;-78
2021/12/31 04:44:04;;;;;;;3.15;1.40;;;;;;;;;;5022730;28;20119;-77
2021/12/31 04:46:30;;;;;;;3.45;1.20;;;;;;;;;;5013743;28;20049;-77
2021/12/31 04:48:57;;;;;;;3.28;1.40;;;;;;;;;;5014916;28;20112;-77
2021/12/31 04:51:23;;;;;;;3.55;1.50;;;;;;;;;;5022280;28;20022;-79
2021/12/31 04:53:49;;;;;;;3.00;1.35;;;;;;;;;;5018498;28;20093;-79
2021/12/31 04:56:16;;;;;;;3.08;1.40;;;;;;;;;;5019412;28;20029;-78
2021/12/31 04:58:42;;;;;;;3.10;1.30;;;;;;;;;;5018335;28;20026;-78
2021/12/31 05:01:09;;;;;;;2.83;1.20;;;;;;;;;;5019812;28;20072;-77
2021/12/31 05:03:36;;;;;;;3.47;1.30;;;;;;;;;;5018220;28;20033;-77
2021/12/31 05:06:04;;;;;;;3.30;1.40;;;;;;;;;;5019288;28;21122;-78
2021/12/31 05:08:31;;;;;;;3.63;1.50;;;;;;;;;;5023902;28;20033;-78
2021/12/31 05:10:57;;;;;;;3.83;1.90;;;;;;;;;;5018447;28;20045;-77
2021/12/31 05:13:30;;;;;;;3.53;1.90;;;;;;;;;;5019841;28;20057;-79
2021/12/31 05:16:02;;;;;;;3.60;1.70;;;;;;;;;;5021482;28;20034;-78
2021/12/31 05:18:28;;;;;;;4.25;1.70;;;;;;;;;;5038097;28;20057;-78
2021/12/31 05:20:54;;;;;;;3.45;1.90;;;;;;;;;;5024947;28;20029;-79
2021/12/31 05:23:25;;;;;;;3.53;1.70;;;;;;;;;;5022112;28;20030;-78
2021/12/31 05:25:51;;;;;;;4.10;2.25;;;;;;;;;;5023745;28;20030;-78
2021/12/31 05:28:17;;;;;;;4.38;2.10;;;;;;;;;;5022341;28;20033;-78
2021/12/31 05:30:43;;;;;;;4.03;2.25;;;;;;;;;;5023319;28;20400;-79
2021/12/31 05:33:09;;;;;;;4.30;2.15;;;;;;;;;;5026433;28;20399;-79
2021/12/31 05:35:38;;;;;;;3.90;2.10;;;;;;;;;;5012195;28;20030;-78
2021/12/31 05:38:14;;;;;;;4.05;2.22;;;;;;;;;;5019131;28;20053;-80
2021/12/31 05:40:40;;;;;;;4.10;2.25;;;;;;;;;;5020352;28;20034;-77
2021/12/31 05:43:06;;;;;;;4.78;2.67;;;;;;;;;;5020049;28;20037;-78
2021/12/31 05:45:55;;;;;;;4.47;2.63;;;;;;;;;;5021332;28;20034;-78
2021/12/31 05:48:22;;;;;;;5.38;2.75;;;;;;;;;;5012927;28;20112;-79
2021/12/31 05:50:48;;;;;;;4.78;2.50;;;;;;;;;;5023135;28;20207;-78
2021/12/31 05:53:14;;;;;;;5.10;2.70;;;;;;;;;;5027296;28;20046;-78
2021/12/31 05:55:41;;;;;;;5.00;3.17;;;;;;;;;;5027859;28;20030;-78
2021/12/31 05:58:07;;;;;;;4.90;2.65;;;;;;;;;;5024901;28;20041;-78
2021/12/31 06:00:33;;;;;;;4.85;2.70;;;;;;;;;;5026864;28;20049;-79
2021/12/31 06:03:02;;;;;;;4.90;2.35;;;;;;;;;;5027410;28;20026;-79
2021/12/31 06:05:28;;;;;;;5.10;2.70;;;;;;;;;;5027493;28;20052;-80
2021/12/31 06:07:57;;;;;;;4.53;2.35;;;;;;;;;;5027161;28;20126;-79
2021/12/31 06:10:24;;;;;;;5.43;3.28;;;;;;;;;;5027699;28;20523;-80
2021/12/31 06:12:52;;;;;;;5.07;2.60;;;;;;;;;;5021411;28;20044;-81
2021/12/31 06:15:20;;;;;;;4.32;2.53;;;;;;;;;;5024111;28;20321;-81
2021/12/31 06:17:46;;;;;;;4.68;2.58;;;;;;;;;;5028030;28;20044;-81
2021/12/31 06:20:13;;;;;;;5.78;3.20;;;;;;;;;;5026377;28;20607;-79
2021/12/31 06:22:40;;;;;;;5.22;2.65;;;;;;;;;;5024871;28;20033;-80
2021/12/31 06:25:07;;;;;;;5.50;2.95;;;;;;;;;;5026842;28;20427;-80
2021/12/31 06:27:36;;;;;;;5.00;2.85;;;;;;;;;;5026334;28;20018;-80
2021/12/31 06:30:03;;;;;;;5.53;2.63;;;;;;;;;;5024588;28;20061;-80
2021/12/31 06:32:30;;;;;;;5.40;2.60;;;;;;;;;;5026880;28;20117;-81
2021/12/31 06:35:05;;;;;;;5.43;2.75;;;;;;;;;;5027859;28;20033;-79
2021/12/31 06:37:32;;;;;;;5.20;2.72;;;;;;;;;;5027132;28;20024;-79
2021/12/31 06:40:03;;;;;;;4.90;2.80;;;;;;;;;;5025770;28;20040;-80
2021/12/31 06:42:29;;;;;;;5.43;2.90;;;;;;;;;;5035882;28;20021;-79
2021/12/31 06:44:55;;;;;;;4.93;2.70;;;;;;;;;;5007403;28;20034;-79
2021/12/31 06:47:21;;;;;;;4.60;2.65;;;;;;;;;;5013167;28;20030;-79
2021/12/31 06:49:47;;;;;;;4.95;2.55;;;;;;;;;;5022597;28;20034;-80
2021/12/31 06:52:14;;;;;;;4.60;2.85;;;;;;;;;;5026419;28;20042;-79
2021/12/31 06:54:40;;;;;;;5.65;2.85;;;;;;;;;;5027785;28;20069;-79
2021/12/31 06:57:08;;;;;;;5.18;2.92;;;;;;;;;;5029921;28;20080;-79
2021/12/31 06:59:35;;;;;;;4.65;2.75;;;;;;;;;;5030828;28;20045;-79
2021/12/31 07:02:01;;;;;;;6.28;3.17;;;;;;;;;;5033264;28;20022;-79
2021/12/31 07:04:27;;;;;;;5.20;2.88;;;;;;;;;;5032752;28;20014;-78
2021/12/31 07:06:53;;;;;;;6.72;2.90;;;;;;;;;;5032373;28;20034;-79
2021/12/31 07:09:20;;;;;;;5.03;2.97;;;;;;;;;;5033358;28;20121;-79
2021/12/31 07:11:47;;;;;;;4.85;2.55;;;;;;;;;;5033735;28;20021;-79
2021/12/31 07:14:13;;;;;;;4.68;2.47;;;;;;;;;;5030516;28;20026;-79
2021/12/31 07:16:39;;;;;;;4.90;2.53;;;;;;;;;;5029699;28;20037;-79
2021/12/31 07:19:05;;;;;;;4.75;2.72;;;;;;;;;;5030821;28;20045;-79
2021/12/31 07:21:31;;;;;;;4.95;2.65;;;;;;;;;;5031654;28;20032;-78
2021/12/31 07:23:58;;;;;;;4.75;2.50;;;;;;;;;;5030105;28;20076;-78
2021/12/31 07:26:24;;;;;;;4.85;2.40;;;;;;;;;;5029448;28;20030;-78
2021/12/31 07:28:52;;;;;;;5.40;2.38;;;;;;;;;;5023995;28;20034;-78
2021/12/31 07:31:18;;;;;;;4.60;2.38;;;;;;;;;;5028197;28;20030;-78
2021/12/31 07:33:45;;;;;;;4.68;2.50;;;;;;;;;;5021110;28;20437;-78
2021/12/31 07:36:11;;;;;;;5.07;2.40;;;;;;;;;;5027247;28;20038;-78
2021/12/31 07:38:40;;;;;;;4.35;2.60;;;;;;;;;;5016940;28;20049;-78
2021/12/31 07:41:07;;;;;;;4.25;2.25;;;;;;;;;;5023739;28;20029;-78
2021/12/31 07:43:36;;;;;;;4.10;2.25;;;;;;;;;;5020493;28;20488;-78
2021/12/31 07:46:03;;;;;;;4.55;2.33;;;;;;;;;;5038285;28;20040;-78
2021/12/31 07:48:29;;;;;;;7.15;2.58;;;;;;;;;;5027986;28;20025;-78
2021/12/31 07:50:59;;;;;;;5.03;2.47;;;;;;;;;;5029192;28;20057;-79
2021/12/31 07:53:25;;;;;;;5.40;2.20;;;;;;;;;;5028906;28;20038;-79
2021/12/31 07:55:52;;;;;;;5.05;2.65;;;;;;;;;;5020292;28;20060;-79
2021/12/31 07:58:18;;;;;;;4.63;2.50;;;;;;;;;;5022655;28;20029;-78
2021/12/31 08:00:45;;;;;;;4.45;2.72;;;;;;;;;;5021798;28;20063;-78
2021/12/31 08:03:11;;;;;;;5.40;2.75;;;;;;;;;;5015900;28;20026;-78
2021/12/31 08:05:38;;;;;;;5.20;2.63;;;;;;;;;;5009070;28;20030;-78
2021/12/31 08:08:05;;;;;;;4.93;2.63;;;;;;;;;;5026037;28;20025;-78
2021/12/31 08:10:32;;;;;;;5.78;2.50;;;;;;;;;;5023611;28;20026;-77
2021/12/31 08:13:02;;;;;;;5.50;2.90;;;;;;;;;;5027107;28;20022;-78
2021/12/31 08:15:29;;;;;;;4.88;2.60;;;;;;;;;;5025567;28;20037;-78
2021/12/31 08:17:55;;;;;;;4.68;2.80;;;;;;;;;;5028496;28;20018;-78
2021/12/31 08:20:21;;;;;;;5.43;3.33;;;;;;;;;;5027985;28;20554;-79
2021/12/31 08:22:48;;;;;;;4.70;2.63;;;;;;;;;;5031237;28;20022;-80
2021/12/31 08:25:14;;;;;;;5.20;2.80;;;;;;;;;;5029486;28;20116;-79
2021/12/31 08:27:42;;;;;;;4.90;2.70;;;;;;;;;;5032348;28;20695;-79
2021/12/31 08:30:09;;;;;;;5.32;2.88;;;;;;;;;;5035645;28;20091;-79
2021/12/31 08:32:45;;;;;;;4.07;2.10;;;;;;;;;;5028406;28;20022;-78
2021/12/31 08:35:11;;;;;;;4.88;2.85;;;;;;;;;;5013954;28;20022;-79
2021/12/31 08:37:38;;;;;;;4.07;2.25;;;;;;;;;;5022408;28;20116;-79
2021/12/31 08:40:05;;;;;;;4.07;2.15;;;;;;;;;;5009315;28;20022;-78
2021/12/31 08:42:31;;;;;;;4.60;2.50;;;;;;;;;;5009023;28;20023;-79
2021/12/31 08:44:57;;;;;;;4.53;2.58;;;;;;;;;;5026921;28;20083;-79
2021/12/31 08:47:23;;;;;;;4.72;2.42;;;;;;;;;;5024502;28;20021;-79
2021/12/31 08:49:49;;;;;;;4.60;2.17;;;;;;;;;;5028785;28;20029;-79
2021/12/31 08:52:15;;;;;;;4.80;2.85;;;;;;;;;;5028359;28;20030;-79
2021/12/31 08:54:41;;;;;;;4.68;2.20;;;;;;;;;;5024753;28;20054;-80
2021/12/31 08:57:07;;;;;;;4.70;2.60;;;;;;;;;;5026188;28;20386;-79
2021/12/31 08:59:33;;;;;;;4.00;2.20;;;;;;;;;;5026877;28;20034;-80
2021/12/31 09:02:02;;;;;;;5.07;2.58;;;;;;;;;;5027656;28;20049;-80
2021/12/31 09:04:28;;;;;;;5.85;2.75;;;;;;;;;;5024941;28;20034;-79
2021/12/31 09:06:54;;;;;;;6.15;2.60;;;;;;;;;;5027050;28;20334;-79
2021/12/31 09:09:24;;;;;;;4.50;2.55;;;;;;;;;;5026180;28;20033;-79
2021/12/31 09:11:50;;;;;;;5.43;2.55;;;;;;;;;;5026142;28;20034;-79
2021/12/31 09:14:16;;;;;;;4.43;2.47;;;;;;;;;;5024443;28;20438;-79
2021/12/31 09:16:46;;;;;;;4.30;2.05;;;;;;;;;;5024793;28;20026;-79
2021/12/31 09:19:17;;;;;;;4.35;2.03;;;;;;;;;;5025259;28;20380;-79
2021/12/31 09:21:44;;;;;;;4.38;2.10;;;;;;;;;;5025871;28;20037;-79
2021/12/31 09:24:10;;;;;;;5.15;2.00;;;;;;;;;;5027656;28;20010;-79
2021/12/31 09:26:36;;;;;;;4.43;2.03;;;;;;;;;;5026474;28;20417;-79
2021/12/31 09:29:03;;;;;;;4.88;2.53;;;;;;;;;;5027102;28;20026;-80
2021/12/31 09:31:50;;;;;;;4.03;2.20;;;;;;;;;;5027469;28;20045;-80
2021/12/31 09:34:16;;;;;;;3.95;2.15;;;;;;;;;;5023895;28;20104;-79
2021/12/31 09:36:42;;;;;;;5.80;2.70;;;;;;;;;;5023761;28;20032;-80
2021/12/31 09:39:08;;;;;;;4.65;2.30;;;;;;;;;;5027342;28;20045;-79
2021/12/31 09:41:34;;;;;;;4.22;2.10;;;;;;;;;;5026783;28;20028;-80
2021/12/31 09:44:01;;;;;;;4.53;2.20;;;;;;;;;;5027647;28;20037;-79
2021/12/31 09:46:28;;;;;;;3.90;1.90;;;;;;;;;;5027725;28;20014;-80
2021/12/31 09:48:54;;;;;;;4.43;2.20;;;;;;;;;;5026634;28;20026;-80
2021/12/31 09:51:22;;;;;;;3.90;2.03;;;;;;;;;;5028941;28;20010;-79
2021/12/31 09:53:50;;;;;;;4.45;2.50;;;;;;;;;;5027142;28;20077;-80
2021/12/31 09:56:16;;;;;;;4.65;2.25;;;;;;;;;;5022429;28;20018;-80
2021/12/31 09:58:42;;;;;;;4.25;1.80;;;;;;;;;;5027078;28;20030;-80
2021/12/31 10:01:09;;;;;;;4.78;1.95;;;;;;;;;;5025774;28;20026;-81
2021/12/31 10:03:36;;;;;;;4.40;1.95;;;;;;;;;;5030070;28;20018;-80
2021/12/31 10:06:06;;;;;;;4.65;2.00;;;;;;;;;;5030089;28;20022;-80
2021/12/31 10:08:39;;;;;;;4.32;2.20;;;;;;;;;;5029344;28;20033;-79
2021/12/31 10:11:05;;;;;;;;;;;;;;;;;;5029687;28;20030;-80
2021/12/31 10:13:32;;;;;;;4.28;1.85;;;;;;;;;;5033594;28;19928;-80
2021/12/31 10:15:58;;;;;;;4.78;1.80;;;;;;;;;;5030740;28;20034;-79
2021/12/31 10:18:34;;;;;;;3.85;1.60;;;;;;;;;;5024780;28;20030;-79
2021/12/31 10:21:01;;;;;;;3.60;1.35;;;;;;;;;;5026835;28;20065;-82
2021/12/31 10:23:27;;;;;;;4.20;1.50;;;;;;;;;;5031693;28;20029;-80
2021/12/31 10:26:10;;;;;;;3.83;1.30;;;;;;;;;;5033750;28;20093;-80
2021/12/31 10:28:37;;;;;;;3.17;1.30;;;;;;;;;;5039076;28;20025;-79
2021/12/31 10:31:13;;;;;;;2.70;1.10;;;;;;;;;;5027537;28;20026;-78
2021/12/31 10:33:43;;;;;;;3.55;1.10;;;;;;;;;;5029848;28;20073;-79
2021/12/31 10:36:09;;;;;;;4.22;1.13;;;;;;;;;;5028413;28;20420;-79
2021/12/31 10:38:36;;;;;;;4.32;1.67;;;;;;;;;;5028459;28;20033;-79
2021/12/31 10:41:05;;;;;;;2.40;1.00;;;;;;;;;;5028480;28;20022;-79
2021/12/31 10:43:31;;;;;;;4.15;1.90;;;;;;;;;;5028769;28;20346;-79
2021/12/31 10:45:57;;;;;;;1.77;0.82;;;;;;;;;;5027514;28;20037;-79
2021/12/31 10:48:37;;;;;;;2.15;0.82;;;;;;;;;;5027282;28;20026;-78
2021/12/31 10:51:03;;;;;;;2.60;1.00;;;;;;;;;;5026286;28;20023;-79
2021/12/31 10:53:34;;;;;;;3.42;0.95;;;;;;;;;;5028615;28;20057;-78
2021/12/31 10:56:12;;;;;;;2.28;0.90;;;;;;;;;;5041122;28;20029;-78
2021/12/31 10:58:41;;;;;;;1.63;0.73;;;;;;;;;;5038110;28;20262;-80
2021/12/31 11:01:12;;;;;;;3.15;0.80;;;;;;;;;;5027734;28;20454;-79
2021/12/31 11:03:38;;;;;;;3.17;1.23;;;;;;;;;;5029132;28;20101;-79
2021/12/31 11:06:07;;;;;;;3.45;1.05;;;;;;;;;;5029417;28;20018;-79
2021/12/31 11:08:33;;;;;;;1.80;0.77;;;;;;;;;;5030364;28;20021;-78
2021/12/31 11:11:01;;;;;;;2.92;0.98;;;;;;;;;;5028511;28;20447;-78
2021/12/31 11:13:28;;;;;;;2.30;1.00;;;;;;;;;;5028115;28;20607;-79
2021/12/31 11:15:55;;;;;;;4.32;1.08;;;;;;;;;;5030313;28;20069;-80
2021/12/31 11:18:25;;;;;;;1.98;0.98;;;;;;;;;;5030376;28;20022;-82
2021/12/31 11:20:58;;;;;;;3.10;1.13;;;;;;;;;;5028945;28;20567;-81
2021/12/31 11:23:28;;;;;;;3.58;1.20;;;;;;;;;;5017916;28;20037;-80
2021/12/31 11:25:56;;;;;;;2.45;0.80;;;;;;;;;;5029000;28;20037;-81
2021/12/31 11:28:27;;;;;;;2.70;1.10;;;;;;;;;;5030037;28;20063;-81
2021/12/31 11:31:14;;;;;;;2.08;0.90;;;;;;;;;;5030738;28;20469;-80
2021/12/31 11:33:41;;;;;;;2.15;0.90;;;;;;;;;;5028116;28;20038;-82
2021/12/31 11:39:18;;;;;;;1.75;0.68;;;;;;;;;;5021396;28;20033;-81
2021/12/31 11:41:45;;;;;;;1.60;0.80;;;;;;;;;;5024254;28;20033;-81
2021/12/31 11:44:17;;;;;;;1.50;0.60;;;;;;;;;;5022430;28;20022;-81
2021/12/31 11:46:47;;;;;;;1.30;0.68;;;;;;;;;;5022001;28;20033;-81
2021/12/31 11:49:20;;;;;;;2.78;1.10;;;;;;;;;;5022379;28;20026;-80
2021/12/31 11:52:08;;;;;;;0.70;0.50;;;;;;;;;;5015203;28;20076;-83
2021/12/31 11:54:39;;;;;;;2.42;0.60;;;;;;;;;;5020867;28;20034;-82
2021/12/31 11:57:18;;;;;;;2.50;0.80;;;;;;;;;;5022067;28;20053;-80
2021/12/31 11:59:45;;;;;;;2.63;0.40;;;;;;;;;;5020493;28;20033;-81
2021/12/31 12:02:15;;;;;;;1.60;0.60;;;;;;;;;;5021478;28;20093;-81
2021/12/31 12:04:43;;;;;;;0.80;0.50;;;;;;;;;;5021272;28;20029;-81
2021/12/31 12:07:28;;;;;;;0.88;0.50;;;;;;;;;;5023865;28;20105;-81
2021/12/31 12:09:54;;;;;;;1.25;0.50;;;;;;;;;;5022855;28;20025;-81
2021/12/31 12:12:23;;;;;;;2.67;0.50;;;;;;;;;;5012022;28;20045;-81
2021/12/31 12:14:51;;;;;;;3.72;1.10;;;;;;;;;;5023236;28;20029;-80
2021/12/31 12:17:39;;;;;;;2.35;1.00;;;;;;;;;;5030720;28;20081;-79
2021/12/31 12:20:08;;;;;;;2.83;0.70;;;;;;;;;;5019563;28;20037;-79
2021/12/31 12:22:35;;;;;;;2.15;0.82;;;;;;;;;;5021891;28;20029;-81
2021/12/31 12:25:15;;;;;;;1.67;0.70;;;;;;;;;;5025038;28;20541;-82
2021/12/31 12:27:42;;;;;;;2.50;0.90;;;;;;;;;;5006509;28;20022;-80
2021/12/31 12:30:10;;;;;;;3.00;0.98;;;;;;;;;;5025734;28;20025;-81
2021/12/31 12:32:40;;;;;;;1.08;0.60;;;;;;;;;;5023840;28;20033;-80
2021/12/31 12:35:17;;;;;;;3.17;0.60;;;;;;;;;;5026782;28;20021;-81
2021/12/31 12:37:43;;;;;;;1.60;0.60;;;;;;;;;;5022346;28;20535;-81
2021/12/31 12:40:10;;;;;;;2.40;0.70;;;;;;;;;;5024036;28;20030;-80
2021/12/31 12:42:37;;;;;;;3.50;0.73;;;;;;;;;;5023697;28;20469;-81
2021/12/31 12:45:07;;;;;;;2.55;0.65;;;;;;;;;;5023980;28;20018;-81
2021/12/31 12:47:35;;;;;;;2.33;0.80;;;;;;;;;;5022720;28;20022;-81
2021/12/31 12:50:04;;;;;;;3.08;0.82;;;;;;;;;;5002826;28;20034;-81
2021/12/31 12:52:30;;;;;;;2.90;0.73;;;;;;;;;;5007112;28;20048;-81
2021/12/31 12:55:09;;;;;;;2.17;0.80;;;;;;;;;;5024623;28;20507;-81
2021/12/31 12:57:35;;;;;;;1.73;0.70;;;;;;;;;;5023090;28;20032;-81
2021/12/31 13:00:01;;;;;;;1.85;0.70;;;;;;;;;;5023482;28;20387;-81
2021/12/31 13:02:42;;;;;;;1.55;0.70;;;;;;;;;;5021561;28;20033;-81
2021/12/31 13:05:11;;;;;;;2.95;0.88;;;;;;;;;;5006419;28;20357;-81
2021/12/31 13:07:38;;;;;;;2.10;0.70;;;;;;;;;;5023096;28;20057;-81
2021/12/31 13:10:05;;;;;;;2.60;0.70;;;;;;;;;;5024478;28;20022;-81
2021/12/31 13:12:31;;;;;;;1.80;0.82;;;;;;;;;;5023972;28;20049;-81
2021/12/31 13:14:58;;;;;;;2.40;0.90;;;;;;;;;;5013492;28;20414;-80
2021/12/31 13:17:27;;;;;;;1.98;0.85;;;;;;;;;;5005933;28;20065;-81
2021/12/31 13:20:03;;;;;;;1.83;0.77;;;;;;;;;;5012310;28;20097;-80
2021/12/31 13:22:34;;;;;;;2.75;1.00;;;;;;;;;;5022509;28;20028;-80
2021/12/31 13:25:00;;;;;;;3.40;1.42;;;;;;;;;;5022151;28;20026;-80
2021/12/31 13:27:28;;;;;;;2.55;1.10;;;;;;;;;;5029596;28;20030;-80
2021/12/31 13:30:03;;;;;;;4.53;1.33;;;;;;;;;;5003169;28;20077;-79
2021/12/31 13:32:36;;;;;;;3.75;1.40;;;;;;;;;;5028261;28;20033;-80
2021/12/31 13:35:06;;;;;;;3.40;1.48;;;;;;;;;;5023323;28;20117;-81
2021/12/31 13:37:39;;;;;;;3.83;1.20;;;;;;;;;;5023669;28;20036;-81
2021/12/31 13:40:07;;;;;;;2.83;1.25;;;;;;;;;;5006716;28;20053;-81
2021/12/31 13:42:36;;;;;;;2.95;1.17;;;;;;;;;;5014738;28;20033;-80
2021/12/31 13:45:03;;;;;;;5.88;1.40;;;;;;;;;;5024609;28;20122;-80
2021/12/31 13:47:29;;;;;;;3.35;1.40;;;;;;;;;;5025539;28;20487;-81
2021/12/31 13:49:56;;;;;;;3.70;1.65;;;;;;;;;;5023799;28;20101;-80
2021/12/31 13:52:27;;;;;;;3.55;1.38;;;;;;;;;;5025482;28;20022;-81
2021/12/31 13:55:00;;;;;;;3.85;1.35;;;;;;;;;;5021850;28;20121;-80
2021/12/31 13:57:27;;;;;;;3.50;1.30;;;;;;;;;;5008671;28;20431;-82
2021/12/31 13:59:54;;;;;;;4.20;1.50;;;;;;;;;;5023622;28;20022;-79
2021/12/31 14:02:22;;;;;;;4.38;1.35;;;;;;;;;;5023982;28;20701;-79
2021/12/31 14:04:54;;;;;;;3.45;1.30;;;;;;;;;;5025489;28;20030;-80
2021/12/31 14:07:22;;;;;;;3.47;1.40;;;;;;;;;;5029340;28;20022;-81
2021/12/31 14:09:51;;;;;;;2.80;1.10;;;;;;;;;;5030519;28;20052;-79
2021/12/31 14:12:17;;;;;;;4.25;1.35;;;;;;;;;;5026478;28;20094;-80
2021/12/31 14:14:43;;;;;;;4.00;1.08;;;;;;;;;;5024736;28;20090;-80
2021/12/31 14:17:10;;;;;;;3.60;1.40;;;;;;;;;;5026275;28;20117;-80
2021/12/31 14:19:38;;;;;;;5.28;1.40;;;;;;;;;;5023920;28;20037;-80
2021/12/31 14:22:05;;;;;;;4.70;1.50;;;;;;;;;;5007192;28;20010;-80
2021/12/31 14:24:31;;;;;;;3.30;1.30;;;;;;;;;;5011595;28;20026;-80
2021/12/31 14:26:58;;;;;;;3.55;1.08;;;;;;;;;;5025189;28;20022;-80
2021/12/31 14:29:24;;;;;;;2.42;0.85;;;;;;;;;;5024791;28;20018;-80
2021/12/31 14:31:50;;;;;;;3.03;1.13;;;;;;;;;;5022704;28;20024;-80
2021/12/31 14:34:17;;;;;;;3.38;1.40;;;;;;;;;;5024294;28;20024;-80
2021/12/31 14:37:03;;;;;;;5.13;1.50;;;;;;;;;;5022674;28;20053;-79
2021/12/31 14:39:29;;;;;;;3.17;1.13;;;;;;;;;;5023200;28;20049;-79
2021/12/31 14:41:56;;;;;;;3.15;1.30;;;;;;;;;;5023347;28;20419;-80
2021/12/31 14:44:23;;;;;;;4.47;1.70;;;;;;;;;;5023323;28;20492;-80
2021/12/31 14:46:53;;;;;;;4.50;1.50;;;;;;;;;;5021872;28;20037;-80
2021/12/31 14:49:21;;;;;;;3.40;1.27;;;;;;;;;;5021875;28;20010;-80